Terminal Aerodrome Forecast
Issued by NWS Sioux Falls, SD

Current Version | Previous Version | Text Only | Print | Product List | Glossary On
Versions: 1 2 3 4 5 6 7 8 9 10 11 12 13 14 15 16 17 18 19 20 21 22
000
FTUS43 KFSD 291502 AAA
TAFFSD
TAF AMD
KFSD 291502Z 2915/3012 18007KT P6SM SKC
      TEMPO 2915/2917 BKN006
     FM300000 17005KT P6SM SKC
     FM300900 17005KT 4SM BR SKC=

USA.gov is the U.S. government's official web portal to all federal, state and local government web resources and services.